sensor_id;sensor_type;location;lat;lon;timestamp;P1;durP1;ratioP1;P2;durP2;ratioP2
56299;SDS011;42209;6.376;-10.782;2022-10-04T00:05:11;1.17;;;0.45;;
56299;SDS011;42209;6.376;-10.782;2022-10-04T00:07:45;1.70;;;0.60;;
56299;SDS011;42209;6.376;-10.782;2022-10-04T00:10:21;2.15;;;1.08;;
56299;SDS011;42209;6.376;-10.782;2022-10-04T00:12:58;2.58;;;0.80;;
56299;SDS011;42209;6.376;-10.782;2022-10-04T00:15:35;1.20;;;0.68;;
56299;SDS011;42209;6.376;-10.782;2022-10-04T00:20:57;1.25;;;0.50;;
56299;SDS011;42209;6.376;-10.782;2022-10-04T00:26:10;1.85;;;0.90;;
56299;SDS011;42209;6.376;-10.782;2022-10-04T00:28:48;1.33;;;0.60;;
56299;SDS011;42209;6.376;-10.782;2022-10-04T00:31:27;1.05;;;0.40;;
56299;SDS011;42209;6.376;-10.782;2022-10-04T00:39:24;1.42;;;0.55;;
56299;SDS011;42209;6.376;-10.782;2022-10-04T00:45:12;1.40;;;0.45;;
56299;SDS011;42209;6.376;-10.782;2022-10-04T00:50:17;1.83;;;0.50;;
56299;SDS011;42209;6.376;-10.782;2022-10-04T00:52:56;1.13;;;0.47;;
56299;SDS011;42209;6.376;-10.782;2022-10-04T00:55:34;1.50;;;0.50;;
56299;SDS011;42209;6.376;-10.782;2022-10-04T00:58:11;1.85;;;0.43;;
56299;SDS011;42209;6.376;-10.782;2022-10-04T01:01:12;2.22;;;1.00;;
56299;SDS011;42209;6.376;-10.782;2022-10-04T01:03:41;0.93;;;0.50;;
56299;SDS011;42209;6.376;-10.782;2022-10-04T01:06:11;1.00;;;0.40;;
56299;SDS011;42209;6.376;-10.782;2022-10-04T01:08:45;1.15;;;0.47;;
56299;SDS011;42209;6.376;-10.782;2022-10-04T01:11:23;0.93;;;0.40;;
56299;SDS011;42209;6.376;-10.782;2022-10-04T01:14:04;1.90;;;0.50;;
56299;SDS011;42209;6.376;-10.782;2022-10-04T01:16:33;0.90;;;0.30;;
56299;SDS011;42209;6.376;-10.782;2022-10-04T01:21:57;2.15;;;0.70;;
56299;SDS011;42209;6.376;-10.782;2022-10-04T01:24:35;1.48;;;0.65;;
56299;SDS011;42209;6.376;-10.782;2022-10-04T01:27:06;2.58;;;0.73;;
56299;SDS011;42209;6.376;-10.782;2022-10-04T01:30:00;1.00;;;0.35;;
56299;SDS011;42209;6.376;-10.782;2022-10-04T01:32:30;1.17;;;0.45;;
56299;SDS011;42209;6.376;-10.782;2022-10-04T01:34:58;1.77;;;0.40;;
56299;SDS011;42209;6.376;-10.782;2022-10-04T01:37:27;0.93;;;0.40;;
56299;SDS011;42209;6.376;-10.782;2022-10-04T01:39:55;1.55;;;0.47;;
56299;SDS011;42209;6.376;-10.782;2022-10-04T01:42:25;1.27;;;0.47;;
56299;SDS011;42209;6.376;-10.782;2022-10-04T01:47:59;1.58;;;0.32;;
56299;SDS011;42209;6.376;-10.782;2022-10-04T01:50:32;1.60;;;0.55;;
56299;SDS011;42209;6.376;-10.782;2022-10-04T01:53:13;1.08;;;0.30;;
56299;SDS011;42209;6.376;-10.782;2022-10-04T01:58:50;1.67;;;0.40;;
56299;SDS011;42209;6.376;-10.782;2022-10-04T02:04:07;1.10;;;0.40;;
56299;SDS011;42209;6.376;-10.782;2022-10-04T02:06:48;1.48;;;0.50;;
56299;SDS011;42209;6.376;-10.782;2022-10-04T02:09:22;1.02;;;0.52;;
56299;SDS011;42209;6.376;-10.782;2022-10-04T02:11:53;0.77;;;0.20;;
56299;SDS011;42209;6.376;-10.782;2022-10-04T02:14:27;1.25;;;0.40;;
56299;SDS011;42209;6.376;-10.782;2022-10-04T02:16:58;1.27;;;0.40;;
56299;SDS011;42209;6.376;-10.782;2022-10-04T02:19:33;1.02;;;0.50;;
56299;SDS011;42209;6.376;-10.782;2022-10-04T02:22:04;1.63;;;0.50;;
56299;SDS011;42209;6.376;-10.782;2022-10-04T02:24:42;1.00;;;0.30;;
56299;SDS011;42209;6.376;-10.782;2022-10-04T02:27:13;1.63;;;0.68;;
56299;SDS011;42209;6.376;-10.782;2022-10-04T02:29:42;0.80;;;0.30;;
56299;SDS011;42209;6.376;-10.782;2022-10-04T02:32:10;1.30;;;0.63;;
56299;SDS011;42209;6.376;-10.782;2022-10-04T02:34:40;1.08;;;0.50;;
56299;SDS011;42209;6.376;-10.782;2022-10-04T02:37:09;1.75;;;0.40;;
56299;SDS011;42209;6.376;-10.782;2022-10-04T02:39:39;0.90;;;0.20;;
56299;SDS011;42209;6.376;-10.782;2022-10-04T02:42:27;0.85;;;0.20;;
56299;SDS011;42209;6.376;-10.782;2022-10-04T02:45:04;1.20;;;0.40;;
56299;SDS011;42209;6.376;-10.782;2022-10-04T02:47:42;0.70;;;0.30;;
56299;SDS011;42209;6.376;-10.782;2022-10-04T02:50:23;0.75;;;0.30;;
56299;SDS011;42209;6.376;-10.782;2022-10-04T02:52:58;0.80;;;0.22;;
56299;SDS011;42209;6.376;-10.782;2022-10-04T02:56:00;1.15;;;0.52;;
56299;SDS011;42209;6.376;-10.782;2022-10-04T02:58:29;0.98;;;0.25;;
56299;SDS011;42209;6.376;-10.782;2022-10-04T03:00:59;2.00;;;0.40;;
56299;SDS011;42209;6.376;-10.782;2022-10-04T03:03:34;1.00;;;0.40;;
56299;SDS011;42209;6.376;-10.782;2022-10-04T03:11:10;0.90;;;0.20;;
56299;SDS011;42209;6.376;-10.782;2022-10-04T03:13:43;0.45;;;0.30;;
56299;SDS011;42209;6.376;-10.782;2022-10-04T03:16:13;0.65;;;0.20;;
56299;SDS011;42209;6.376;-10.782;2022-10-04T03:18:42;0.70;;;0.20;;
56299;SDS011;42209;6.376;-10.782;2022-10-04T03:21:13;0.75;;;0.47;;
56299;SDS011;42209;6.376;-10.782;2022-10-04T03:23:44;1.08;;;0.20;;
56299;SDS011;42209;6.376;-10.782;2022-10-04T03:26:18;0.50;;;0.20;;
56299;SDS011;42209;6.376;-10.782;2022-10-04T03:28:54;1.20;;;0.30;;
56299;SDS011;42209;6.376;-10.782;2022-10-04T03:31:25;0.98;;;0.30;;
56299;SDS011;42209;6.376;-10.782;2022-10-04T03:33:55;0.95;;;0.40;;
56299;SDS011;42209;6.376;-10.782;2022-10-04T03:36:24;0.95;;;0.20;;
56299;SDS011;42209;6.376;-10.782;2022-10-04T03:38:54;1.20;;;0.28;;
56299;SDS011;42209;6.376;-10.782;2022-10-04T03:41:23;0.80;;;0.40;;
56299;SDS011;42209;6.376;-10.782;2022-10-04T03:43:52;0.88;;;0.30;;
56299;SDS011;42209;6.376;-10.782;2022-10-04T03:46:26;0.93;;;0.40;;
56299;SDS011;42209;6.376;-10.782;2022-10-04T03:48:54;0.98;;;0.30;;
56299;SDS011;42209;6.376;-10.782;2022-10-04T03:51:25;1.08;;;0.30;;
56299;SDS011;42209;6.376;-10.782;2022-10-04T03:53:54;1.65;;;0.50;;
56299;SDS011;42209;6.376;-10.782;2022-10-04T03:56:26;1.55;;;0.30;;
56299;SDS011;42209;6.376;-10.782;2022-10-04T03:59:01;1.02;;;0.50;;
56299;SDS011;42209;6.376;-10.782;2022-10-04T04:04:04;0.88;;;0.35;;
56299;SDS011;42209;6.376;-10.782;2022-10-04T04:06:58;0.77;;;0.32;;
56299;SDS011;42209;6.376;-10.782;2022-10-04T04:09:48;1.02;;;0.30;;
56299;SDS011;42209;6.376;-10.782;2022-10-04T04:12:24;1.35;;;0.40;;
56299;SDS011;42209;6.376;-10.782;2022-10-04T04:15:05;0.98;;;0.20;;
56299;SDS011;42209;6.376;-10.782;2022-10-04T04:20:20;1.75;;;0.70;;
56299;SDS011;42209;6.376;-10.782;2022-10-04T04:22:59;0.77;;;0.40;;
56299;SDS011;42209;6.376;-10.782;2022-10-04T04:25:45;1.38;;;0.40;;
56299;SDS011;42209;6.376;-10.782;2022-10-04T04:31:23;0.98;;;0.38;;
56299;SDS011;42209;6.376;-10.782;2022-10-04T04:36:47;1.65;;;0.35;;
56299;SDS011;42209;6.376;-10.782;2022-10-04T04:39:17;0.90;;;0.40;;
56299;SDS011;42209;6.376;-10.782;2022-10-04T04:41:47;0.77;;;0.30;;
56299;SDS011;42209;6.376;-10.782;2022-10-04T04:44:16;0.88;;;0.40;;
56299;SDS011;42209;6.376;-10.782;2022-10-04T04:46:45;0.95;;;0.30;;
56299;SDS011;42209;6.376;-10.782;2022-10-04T04:49:15;1.08;;;0.40;;
56299;SDS011;42209;6.376;-10.782;2022-10-04T04:51:45;0.82;;;0.30;;
56299;SDS011;42209;6.376;-10.782;2022-10-04T04:54:17;1.00;;;0.70;;
56299;SDS011;42209;6.376;-10.782;2022-10-04T04:56:50;1.02;;;0.55;;
56299;SDS011;42209;6.376;-10.782;2022-10-04T04:59:22;0.73;;;0.30;;
56299;SDS011;42209;6.376;-10.782;2022-10-04T05:01:52;0.85;;;0.30;;
56299;SDS011;42209;6.376;-10.782;2022-10-04T05:04:21;0.90;;;0.30;;
56299;SDS011;42209;6.376;-10.782;2022-10-04T05:07:04;0.95;;;0.20;;
56299;SDS011;42209;6.376;-10.782;2022-10-04T05:09:41;1.10;;;0.40;;
56299;SDS011;42209;6.376;-10.782;2022-10-04T05:14:47;0.50;;;0.17;;
56299;SDS011;42209;6.376;-10.782;2022-10-04T05:17:28;0.90;;;0.40;;
56299;SDS011;42209;6.376;-10.782;2022-10-04T05:20:00;1.65;;;0.43;;
56299;SDS011;42209;6.376;-10.782;2022-10-04T05:22:29;1.00;;;0.30;;
56299;SDS011;42209;6.376;-10.782;2022-10-04T05:25:08;1.10;;;0.30;;
56299;SDS011;42209;6.376;-10.782;2022-10-04T05:27:41;1.20;;;0.20;;
56299;SDS011;42209;6.376;-10.782;2022-10-04T05:33:02;0.75;;;0.30;;
56299;SDS011;42209;6.376;-10.782;2022-10-04T05:38:55;0.60;;;0.30;;
56299;SDS011;42209;6.376;-10.782;2022-10-04T05:44:49;0.75;;;0.30;;
56299;SDS011;42209;6.376;-10.782;2022-10-04T05:47:20;1.48;;;0.68;;
56299;SDS011;42209;6.376;-10.782;2022-10-04T05:49:58;1.30;;;0.30;;
56299;SDS011;42209;6.376;-10.782;2022-10-04T05:52:35;0.70;;;0.30;;
56299;SDS011;42209;6.376;-10.782;2022-10-04T05:55:20;1.58;;;0.28;;
56299;SDS011;42209;6.376;-10.782;2022-10-04T06:03:26;0.70;;;0.20;;
56299;SDS011;42209;6.376;-10.782;2022-10-04T06:20:10;0.70;;;0.20;;
56299;SDS011;42209;6.376;-10.782;2022-10-04T06:22:58;0.63;;;0.30;;
56299;SDS011;42209;6.376;-10.782;2022-10-04T06:25:29;0.63;;;0.20;;
56299;SDS011;42209;6.376;-10.782;2022-10-04T06:42:37;1.17;;;0.28;;
56299;SDS011;42209;6.376;-10.782;2022-10-04T06:59:45;0.95;;;0.32;;
56299;SDS011;42209;6.376;-10.782;2022-10-04T07:02:33;1.15;;;0.30;;
56299;SDS011;42209;6.376;-10.782;2022-10-04T07:07:51;1.23;;;0.60;;
56299;SDS011;42209;6.376;-10.782;2022-10-04T07:10:39;1.05;;;0.30;;
56299;SDS011;42209;6.376;-10.782;2022-10-04T07:15:56;0.95;;;0.40;;
56299;SDS011;42209;6.376;-10.782;2022-10-04T07:19:22;2.13;;;0.50;;
56299;SDS011;42209;6.376;-10.782;2022-10-04T07:22:08;1.35;;;0.52;;
56299;SDS011;42209;6.376;-10.782;2022-10-04T07:27:33;0.90;;;0.40;;
56299;SDS011;42209;6.376;-10.782;2022-10-04T07:30:15;1.00;;;0.40;;
56299;SDS011;42209;6.376;-10.782;2022-10-04T07:32:46;1.52;;;0.50;;
56299;SDS011;42209;6.376;-10.782;2022-10-04T07:35:29;1.42;;;0.50;;
56299;SDS011;42209;6.376;-10.782;2022-10-04T07:40:40;1.10;;;0.40;;
56299;SDS011;42209;6.376;-10.782;2022-10-04T07:43:27;1.23;;;0.60;;
56299;SDS011;42209;6.376;-10.782;2022-10-04T07:46:18;1.60;;;0.47;;
56299;SDS011;42209;6.376;-10.782;2022-10-04T07:49:19;1.50;;;0.47;;
56299;SDS011;42209;6.376;-10.782;2022-10-04T07:52:24;1.38;;;0.82;;
56299;SDS011;42209;6.376;-10.782;2022-10-04T08:04:30;1.80;;;0.90;;
56299;SDS011;42209;6.376;-10.782;2022-10-04T08:10:12;1.88;;;1.27;;
56299;SDS011;42209;6.376;-10.782;2022-10-04T08:15:51;2.40;;;0.95;;
56299;SDS011;42209;6.376;-10.782;2022-10-04T08:21:21;1.52;;;0.70;;
56299;SDS011;42209;6.376;-10.782;2022-10-04T08:30:01;3.85;;;0.70;;
56299;SDS011;42209;6.376;-10.782;2022-10-04T08:35:34;1.48;;;0.85;;
56299;SDS011;42209;6.376;-10.782;2022-10-04T08:47:30;1.58;;;0.80;;
56299;SDS011;42209;6.376;-10.782;2022-10-04T08:50:30;1.20;;;0.73;;
56299;SDS011;42209;6.376;-10.782;2022-10-04T09:08:18;1.83;;;0.80;;
56299;SDS011;42209;6.376;-10.782;2022-10-04T09:13:59;1.55;;;0.90;;
56299;SDS011;42209;6.376;-10.782;2022-10-04T09:20:01;5.35;;;1.42;;
56299;SDS011;42209;6.376;-10.782;2022-10-04T09:32:17;3.15;;;0.90;;
56299;SDS011;42209;6.376;-10.782;2022-10-04T09:45:58;1.60;;;0.82;;
56299;SDS011;42209;6.376;-10.782;2022-10-04T09:54:03;1.42;;;1.08;;
56299;SDS011;42209;6.376;-10.782;2022-10-04T10:02:44;2.05;;;0.80;;
56299;SDS011;42209;6.376;-10.782;2022-10-04T10:14:11;1.88;;;0.63;;
56299;SDS011;42209;6.376;-10.782;2022-10-04T10:17:11;2.72;;;0.57;;
56299;SDS011;42209;6.376;-10.782;2022-10-04T10:46:56;1.05;;;0.50;;
56299;SDS011;42209;6.376;-10.782;2022-10-04T11:09:36;1.60;;;0.60;;
56299;SDS011;42209;6.376;-10.782;2022-10-04T11:18:02;1.45;;;0.40;;
56299;SDS011;42209;6.376;-10.782;2022-10-04T11:20:25;1.13;;;0.40;;
56299;SDS011;42209;6.376;-10.782;2022-10-04T11:40:46;1.35;;;0.50;;
56299;SDS011;42209;6.376;-10.782;2022-10-04T11:43:32;1.00;;;0.52;;
56299;SDS011;42209;6.376;-10.782;2022-10-04T11:54:59;1.08;;;0.35;;
56299;SDS011;42209;6.376;-10.782;2022-10-04T12:00:45;1.55;;;0.50;;
56299;SDS011;42209;6.376;-10.782;2022-10-04T12:23:51;1.52;;;0.30;;
56299;SDS011;42209;6.376;-10.782;2022-10-04T12:32:17;1.02;;;0.35;;
56299;SDS011;42209;6.376;-10.782;2022-10-04T12:37:29;0.85;;;0.30;;
56299;SDS011;42209;6.376;-10.782;2022-10-04T12:42:44;1.38;;;0.30;;
56299;SDS011;42209;6.376;-10.782;2022-10-04T12:59:34;0.90;;;0.20;;
56299;SDS011;42209;6.376;-10.782;2022-10-04T13:05:28;1.58;;;0.28;;
56299;SDS011;42209;6.376;-10.782;2022-10-04T13:19:44;1.48;;;0.30;;
56299;SDS011;42209;6.376;-10.782;2022-10-04T13:22:40;0.65;;;0.20;;
56299;SDS011;42209;6.376;-10.782;2022-10-04T13:25:35;0.45;;;0.20;;
56299;SDS011;42209;6.376;-10.782;2022-10-04T13:31:12;1.80;;;0.25;;
56299;SDS011;42209;6.376;-10.782;2022-10-04T13:53:31;1.10;;;0.25;;
56299;SDS011;42209;6.376;-10.782;2022-10-04T14:05:10;0.98;;;0.17;;
56299;SDS011;42209;6.376;-10.782;2022-10-04T14:08:15;0.32;;;0.10;;
56299;SDS011;42209;6.376;-10.782;2022-10-04T14:11:26;0.93;;;0.10;;
56299;SDS011;42209;6.376;-10.782;2022-10-04T14:20:06;0.93;;;0.20;;
56299;SDS011;42209;6.376;-10.782;2022-10-04T14:23:19;1.40;;;0.10;;
56299;SDS011;42209;6.376;-10.782;2022-10-04T14:26:13;1.05;;;0.20;;
56299;SDS011;42209;6.376;-10.782;2022-10-04T14:48:58;0.80;;;0.20;;
56299;SDS011;42209;6.376;-10.782;2022-10-04T14:54:40;0.90;;;0.20;;
56299;SDS011;42209;6.376;-10.782;2022-10-04T14:57:42;1.42;;;0.20;;
56299;SDS011;42209;6.376;-10.782;2022-10-04T15:03:42;1.60;;;0.57;;
56299;SDS011;42209;6.376;-10.782;2022-10-04T15:06:45;0.50;;;0.15;;
56299;SDS011;42209;6.376;-10.782;2022-10-04T15:24:21;0.65;;;0.10;;
56299;SDS011;42209;6.376;-10.782;2022-10-04T15:29:27;0.68;;;0.10;;
56299;SDS011;42209;6.376;-10.782;2022-10-04T15:38:19;0.50;;;0.10;;
56299;SDS011;42209;6.376;-10.782;2022-10-04T15:49:41;1.80;;;0.10;;
56299;SDS011;42209;6.376;-10.782;2022-10-04T15:55:21;1.08;;;0.40;;
56299;SDS011;42209;6.376;-10.782;2022-10-04T16:04:12;0.68;;;0.10;;
56299;SDS011;42209;6.376;-10.782;2022-10-04T16:09:35;1.38;;;0.10;;
56299;SDS011;42209;6.376;-10.782;2022-10-04T16:21:04;0.45;;;0.10;;
56299;SDS011;42209;6.376;-10.782;2022-10-04T16:23:43;1.80;;;0.17;;
56299;SDS011;42209;6.376;-10.782;2022-10-04T16:26:12;2.00;;;0.22;;
56299;SDS011;42209;6.376;-10.782;2022-10-04T16:31:47;2.65;;;0.10;;
56299;SDS011;42209;6.376;-10.782;2022-10-04T16:34:28;1.63;;;0.13;;
56299;SDS011;42209;6.376;-10.782;2022-10-04T16:37:24;1.85;;;0.17;;
56299;SDS011;42209;6.376;-10.782;2022-10-04T16:48:33;0.50;;;0.10;;
56299;SDS011;42209;6.376;-10.782;2022-10-04T17:13:52;2.65;;;0.10;;
56299;SDS011;42209;6.376;-10.782;2022-10-04T17:16:27;1.73;;;0.30;;
56299;SDS011;42209;6.376;-10.782;2022-10-04T17:19:39;1.05;;;0.10;;
56299;SDS011;42209;6.376;-10.782;2022-10-04T17:22:22;0.70;;;0.08;;
56299;SDS011;42209;6.376;-10.782;2022-10-04T17:25:22;2.33;;;0.10;;
56299;SDS011;42209;6.376;-10.782;2022-10-04T17:44:33;0.95;;;0.10;;
56299;SDS011;42209;6.376;-10.782;2022-10-04T17:47:26;0.10;;;0.10;;
56299;SDS011;42209;6.376;-10.782;2022-10-04T17:50:28;0.40;;;0.10;;
56299;SDS011;42209;6.376;-10.782;2022-10-04T17:53:02;0.15;;;0.10;;
56299;SDS011;42209;6.376;-10.782;2022-10-04T17:55:43;0.55;;;0.10;;
56299;SDS011;42209;6.376;-10.782;2022-10-04T18:04:07;0.47;;;0.10;;
56299;SDS011;42209;6.376;-10.782;2022-10-04T18:09:57;2.88;;;0.35;;
56299;SDS011;42209;6.376;-10.782;2022-10-04T18:12:51;1.95;;;0.30;;
56299;SDS011;42209;6.376;-10.782;2022-10-04T18:18:20;1.75;;;0.70;;
56299;SDS011;42209;6.376;-10.782;2022-10-04T18:23:26;3.70;;;3.17;;
56299;SDS011;42209;6.376;-10.782;2022-10-04T18:25:57;5.57;;;4.82;;
56299;SDS011;42209;6.376;-10.782;2022-10-04T18:28:53;5.82;;;4.40;;
56299;SDS011;42209;6.376;-10.782;2022-10-04T18:33:52;6.68;;;5.93;;
56299;SDS011;42209;6.376;-10.782;2022-10-04T18:36:23;8.07;;;7.22;;
56299;SDS011;42209;6.376;-10.782;2022-10-04T18:41:43;9.50;;;8.50;;
56299;SDS011;42209;6.376;-10.782;2022-10-04T18:44:20;7.55;;;6.80;;
56299;SDS011;42209;6.376;-10.782;2022-10-04T18:46:55;7.47;;;6.72;;
56299;SDS011;42209;6.376;-10.782;2022-10-04T18:49:29;9.75;;;7.13;;
56299;SDS011;42209;6.376;-10.782;2022-10-04T19:02:52;8.60;;;6.70;;
56299;SDS011;42209;6.376;-10.782;2022-10-04T19:11:26;7.43;;;6.68;;
56299;SDS011;42209;6.376;-10.782;2022-10-04T19:25:18;9.73;;;6.40;;
56299;SDS011;42209;6.376;-10.782;2022-10-04T19:39:40;5.78;;;5.10;;
56299;SDS011;42209;6.376;-10.782;2022-10-04T19:42:14;6.05;;;5.10;;
56299;SDS011;42209;6.376;-10.782;2022-10-04T19:47:51;5.32;;;4.20;;
56299;SDS011;42209;6.376;-10.782;2022-10-04T19:50:39;5.20;;;4.55;;
56299;SDS011;42209;6.376;-10.782;2022-10-04T19:53:40;5.70;;;4.47;;
56299;SDS011;42209;6.376;-10.782;2022-10-04T19:56:19;4.50;;;4.10;;
56299;SDS011;42209;6.376;-10.782;2022-10-04T19:58:52;5.13;;;4.00;;
56299;SDS011;42209;6.376;-10.782;2022-10-04T20:01:30;4.32;;;3.80;;
56299;SDS011;42209;6.376;-10.782;2022-10-04T20:03:58;3.97;;;3.35;;
56299;SDS011;42209;6.376;-10.782;2022-10-04T20:06:27;4.55;;;3.53;;
56299;SDS011;42209;6.376;-10.782;2022-10-04T20:08:55;4.97;;;3.90;;
56299;SDS011;42209;6.376;-10.782;2022-10-04T20:11:45;4.88;;;4.45;;
56299;SDS011;42209;6.376;-10.782;2022-10-04T20:19:19;3.70;;;3.40;;
56299;SDS011;42209;6.376;-10.782;2022-10-04T20:21:55;3.60;;;2.92;;
56299;SDS011;42209;6.376;-10.782;2022-10-04T20:34:56;5.15;;;2.85;;
56299;SDS011;42209;6.376;-10.782;2022-10-04T20:45:42;3.85;;;2.75;;
56299;SDS011;42209;6.376;-10.782;2022-10-04T20:48:19;4.45;;;2.65;;
56299;SDS011;42209;6.376;-10.782;2022-10-04T20:50:52;5.90;;;3.08;;
56299;SDS011;42209;6.376;-10.782;2022-10-04T20:53:25;3.38;;;2.15;;
56299;SDS011;42209;6.376;-10.782;2022-10-04T20:56:14;2.92;;;2.45;;
56299;SDS011;42209;6.376;-10.782;2022-10-04T20:59:12;4.25;;;2.20;;
56299;SDS011;42209;6.376;-10.782;2022-10-04T21:01:40;2.25;;;1.85;;
56299;SDS011;42209;6.376;-10.782;2022-10-04T21:04:18;2.33;;;2.00;;
56299;SDS011;42209;6.376;-10.782;2022-10-04T21:06:52;3.63;;;2.10;;
56299;SDS011;42209;6.376;-10.782;2022-10-04T21:09:22;3.38;;;1.58;;
56299;SDS011;42209;6.376;-10.782;2022-10-04T21:11:55;4.43;;;2.40;;
56299;SDS011;42209;6.376;-10.782;2022-10-04T21:14:25;2.72;;;1.73;;
56299;SDS011;42209;6.376;-10.782;2022-10-04T21:17:40;2.50;;;1.65;;
56299;SDS011;42209;6.376;-10.782;2022-10-04T21:20:01;2.10;;;1.48;;
56299;SDS011;42209;6.376;-10.782;2022-10-04T21:22:30;2.53;;;1.27;;
56299;SDS011;42209;6.376;-10.782;2022-10-04T21:25:00;1.88;;;1.30;;
56299;SDS011;42209;6.376;-10.782;2022-10-04T21:27:35;2.47;;;1.40;;
56299;SDS011;42209;6.376;-10.782;2022-10-04T21:30:06;1.83;;;1.50;;
56299;SDS011;42209;6.376;-10.782;2022-10-04T21:32:44;1.80;;;0.95;;
56299;SDS011;42209;6.376;-10.782;2022-10-04T21:35:12;2.83;;;1.13;;
56299;SDS011;42209;6.376;-10.782;2022-10-04T21:37:41;2.53;;;1.75;;
56299;SDS011;42209;6.376;-10.782;2022-10-04T21:40:09;2.22;;;1.52;;
56299;SDS011;42209;6.376;-10.782;2022-10-04T21:42:39;2.28;;;1.50;;
56299;SDS011;42209;6.376;-10.782;2022-10-04T21:45:07;2.17;;;1.55;;
56299;SDS011;42209;6.376;-10.782;2022-10-04T21:47:35;2.28;;;0.82;;
56299;SDS011;42209;6.376;-10.782;2022-10-04T21:50:04;1.98;;;1.17;;
56299;SDS011;42209;6.376;-10.782;2022-10-04T21:55:00;2.10;;;0.80;;
56299;SDS011;42209;6.376;-10.782;2022-10-04T21:57:28;2.70;;;0.85;;
56299;SDS011;42209;6.376;-10.782;2022-10-04T22:00:01;2.63;;;0.88;;
56299;SDS011;42209;6.376;-10.782;2022-10-04T22:02:37;1.48;;;1.00;;
56299;SDS011;42209;6.376;-10.782;2022-10-04T22:05:06;2.28;;;1.20;;
56299;SDS011;42209;6.376;-10.782;2022-10-04T22:07:35;2.97;;;1.92;;
56299;SDS011;42209;6.376;-10.782;2022-10-04T22:10:03;2.35;;;1.60;;
56299;SDS011;42209;6.376;-10.782;2022-10-04T22:12:31;2.08;;;1.48;;
56299;SDS011;42209;6.376;-10.782;2022-10-04T22:15:00;2.00;;;1.30;;
56299;SDS011;42209;6.376;-10.782;2022-10-04T22:17:28;2.85;;;1.20;;
56299;SDS011;42209;6.376;-10.782;2022-10-04T22:19:56;3.75;;;1.60;;
56299;SDS011;42209;6.376;-10.782;2022-10-04T22:22:24;2.83;;;1.40;;
56299;SDS011;42209;6.376;-10.782;2022-10-04T22:24:54;3.83;;;1.38;;
56299;SDS011;42209;6.376;-10.782;2022-10-04T22:27:23;2.72;;;1.15;;
56299;SDS011;42209;6.376;-10.782;2022-10-04T22:29:55;2.00;;;0.98;;
56299;SDS011;42209;6.376;-10.782;2022-10-04T22:32:25;2.25;;;1.10;;
56299;SDS011;42209;6.376;-10.782;2022-10-04T22:34:58;2.90;;;1.25;;
56299;SDS011;42209;6.376;-10.782;2022-10-04T22:37:28;1.98;;;1.00;;
56299;SDS011;42209;6.376;-10.782;2022-10-04T22:39:56;1.88;;;1.00;;
56299;SDS011;42209;6.376;-10.782;2022-10-04T22:42:27;2.72;;;1.33;;
56299;SDS011;42209;6.376;-10.782;2022-10-04T22:45:00;1.50;;;0.90;;
56299;SDS011;42209;6.376;-10.782;2022-10-04T22:47:28;2.33;;;0.80;;
56299;SDS011;42209;6.376;-10.782;2022-10-04T22:49:58;2.63;;;0.80;;
56299;SDS011;42209;6.376;-10.782;2022-10-04T22:52:26;2.63;;;1.10;;
56299;SDS011;42209;6.376;-10.782;2022-10-04T22:54:56;1.85;;;1.17;;
56299;SDS011;42209;6.376;-10.782;2022-10-04T22:57:28;2.17;;;1.00;;
56299;SDS011;42209;6.376;-10.782;2022-10-04T22:59:57;2.70;;;1.25;;
56299;SDS011;42209;6.376;-10.782;2022-10-04T23:02:27;1.50;;;0.65;;
56299;SDS011;42209;6.376;-10.782;2022-10-04T23:05:15;1.83;;;0.70;;
56299;SDS011;42209;6.376;-10.782;2022-10-04T23:07:45;1.77;;;0.73;;
56299;SDS011;42209;6.376;-10.782;2022-10-04T23:10:15;1.88;;;0.50;;
56299;SDS011;42209;6.376;-10.782;2022-10-04T23:12:46;1.58;;;0.70;;
56299;SDS011;42209;6.376;-10.782;2022-10-04T23:15:16;1.88;;;0.90;;
56299;SDS011;42209;6.376;-10.782;2022-10-04T23:17:49;1.60;;;0.82;;
56299;SDS011;42209;6.376;-10.782;2022-10-04T23:20:20;1.90;;;0.50;;
56299;SDS011;42209;6.376;-10.782;2022-10-04T23:27:55;1.45;;;0.60;;
56299;SDS011;42209;6.376;-10.782;2022-10-04T23:30:28;1.58;;;0.68;;
56299;SDS011;42209;6.376;-10.782;2022-10-04T23:32:56;1.15;;;0.40;;
56299;SDS011;42209;6.376;-10.782;2022-10-04T23:35:30;1.02;;;0.47;;
56299;SDS011;42209;6.376;-10.782;2022-10-04T23:38:00;1.20;;;0.50;;
56299;SDS011;42209;6.376;-10.782;2022-10-04T23:42:57;1.15;;;0.52;;
56299;SDS011;42209;6.376;-10.782;2022-10-04T23:45:30;1.75;;;0.60;;
56299;SDS011;42209;6.376;-10.782;2022-10-04T23:47:58;1.10;;;0.57;;
56299;SDS011;42209;6.376;-10.782;2022-10-04T23:50:30;1.45;;;0.47;;
56299;SDS011;42209;6.376;-10.782;2022-10-04T23:53:03;1.17;;;0.40;;
56299;SDS011;42209;6.376;-10.782;2022-10-04T23:55:36;1.20;;;0.40;;
56299;SDS011;42209;6.376;-10.782;2022-10-04T23:58:14;1.38;;;0.57;;
